Time;durP1;ratioP1;P1;durP2;ratioP2;P2;SDS_P1;SDS_P2;PMS_P1;PMS_P2;Temp;Humidity;BMP_temperature;BMP_pressure;BME280_temperature;BME280_humidity;BME280_pressure;Samples;Min_cycle;Max_cycle;Signal;HPM_P1;HPM_P2
2022/11/20 00:01:42;;;;;;;14.32;9.25;;;;;;;-6.10;100.00;101508.22;5029089;28;20032;-77
2022/11/20 00:04:10;;;;;;;17.80;9.43;;;;;;;-6.10;100.00;101510.81;5030430;28;20030;-78
2022/11/20 00:06:35;;;;;;;16.17;9.48;;;;;;;-6.11;100.00;101517.72;5030953;28;20112;-79
2022/11/20 00:09:01;;;;;;;19.85;9.77;;;;;;;-6.11;100.00;101514.28;5030426;28;20116;-78
2022/11/20 00:11:28;;;;;;;14.27;8.90;;;;;;;-6.10;100.00;101509.06;5030383;28;20485;-78
2022/11/20 00:13:59;;;;;;;15.57;9.02;;;;;;;-6.10;100.00;101501.31;5030150;28;20114;-79
2022/11/20 00:16:27;;;;;;;14.30;8.70;;;;;;;-6.15;100.00;101492.72;5029786;28;20026;-78
2022/11/20 00:18:53;;;;;;;17.67;9.57;;;;;;;-6.15;100.00;101489.25;5029407;28;20025;-78
2022/11/20 00:21:24;;;;;;;17.85;9.45;;;;;;;-6.16;100.00;101492.75;5029894;28;20061;-78
2022/11/20 00:23:51;;;;;;;16.42;9.18;;;;;;;-6.13;100.00;101480.59;5029480;28;20044;-77
2022/11/20 00:26:19;;;;;;;13.55;7.80;;;;;;;-6.10;100.00;101484.91;5029122;28;20029;-77
2022/11/20 00:28:52;;;;;;;19.55;9.15;;;;;;;-6.16;100.00;101490.16;5029507;28;20029;-77
2022/11/20 00:31:17;;;;;;;15.48;9.52;;;;;;;-6.20;100.00;101489.31;5029480;28;20056;-78
2022/11/20 00:33:44;;;;;;;16.25;9.75;;;;;;;-6.20;100.00;101492.75;5029708;28;20496;-78
2022/11/20 00:36:15;;;;;;;15.60;8.93;;;;;;;-6.21;100.00;101487.59;5029260;28;20025;-79
2022/11/20 00:38:41;;;;;;;14.68;8.68;;;;;;;-6.29;100.00;101484.25;5029707;28;20041;-78
2022/11/20 00:41:09;;;;;;;14.65;8.38;;;;;;;-6.34;100.00;101476.53;5029667;28;20025;-78
2022/11/20 00:43:34;;;;;;;16.35;9.43;;;;;;;-6.34;100.00;101484.28;5029117;28;20371;-78
2022/11/20 00:46:02;;;;;;;14.52;8.48;;;;;;;-6.34;100.00;101484.28;5029286;28;20112;-79
2022/11/20 00:48:27;;;;;;;15.43;8.65;;;;;;;-6.31;100.00;101478.22;5029091;28;20033;-78
2022/11/20 00:50:53;;;;;;;16.52;9.80;;;;;;;-6.37;100.00;101479.13;5029194;28;20037;-78
2022/11/20 00:53:19;;;;;;;14.13;8.40;;;;;;;-6.44;100.00;101474.88;5029353;28;20036;-78
2022/11/20 00:55:59;;;;;;;14.07;8.57;;;;;;;-6.47;100.00;101475.78;5033050;28;20038;-78
2022/11/20 00:58:29;;;;;;;16.35;8.70;;;;;;;-6.47;100.00;101475.78;5032584;28;20131;-78
2022/11/20 01:01:10;;;;;;;14.40;8.57;;;;;;;-6.50;100.00;101473.22;5033155;28;20071;-78
2022/11/20 01:03:38;;;;;;;16.48;8.75;;;;;;;-6.56;100.00;101474.13;5032848;28;20040;-78
2022/11/20 01:06:20;;;;;;;15.13;8.95;;;;;;;-6.54;100.00;101476.69;5032633;28;20087;-78
2022/11/20 01:08:47;;;;;;;14.63;8.40;;;;;;;-6.56;100.00;101470.69;5033018;28;20026;-78
2022/11/20 01:11:15;;;;;;;12.70;8.63;;;;;;;-6.58;100.00;101473.28;5032558;28;20107;-77
2022/11/20 01:13:42;;;;;;;15.13;8.63;;;;;;;-6.61;100.00;101468.13;5032782;28;20145;-77
2022/11/20 01:16:29;;;;;;;15.60;8.52;;;;;;;-6.63;100.00;101467.28;5032392;28;20197;-76
2022/11/20 01:18:57;;;;;;;15.77;9.45;;;;;;;-6.63;100.00;101459.50;5032706;28;20066;-78
2022/11/20 01:21:26;;;;;;;16.83;9.10;;;;;;;-6.59;100.00;101455.19;5015208;28;20128;-77
2022/11/20 01:23:52;;;;;;;17.13;9.50;;;;;;;-6.49;100.00;101453.34;5032422;28;20025;-78
2022/11/20 01:26:20;;;;;;;15.85;8.68;;;;;;;-6.44;100.00;101461.94;5032677;28;20101;-78
2022/11/20 01:28:46;;;;;;;13.73;8.55;;;;;;;-6.48;100.00;101466.28;5033144;28;20033;-77
2022/11/20 01:31:23;;;;;;;14.90;8.82;;;;;;;-6.49;100.00;101461.09;5032046;28;20037;-77
2022/11/20 01:33:51;;;;;;;14.32;8.23;;;;;;;-6.43;100.00;101467.09;5032992;28;20061;-77
2022/11/20 01:36:18;;;;;;;20.75;10.35;;;;;;;-6.42;100.00;101463.66;5032797;28;20029;-76
2022/11/20 01:38:44;;;;;;;20.02;10.68;;;;;;;-6.38;100.00;101467.91;5032600;28;20049;-77
2022/11/20 01:43:20;;;;;;;15.75;9.35;;;;;;;-6.42;100.00;101466.25;5032665;28;20102;-77
2022/11/20 01:43:56;;;;;;;15.85;8.43;;;;;;;-6.51;100.00;101468.03;5032168;28;20064;-76
2022/11/20 01:46:22;;;;;;;16.42;9.50;;;;;;;-6.52;100.00;101464.63;5031059;28;20037;-77
2022/11/20 01:49:07;;;;;;;16.60;9.23;;;;;;;-6.57;100.00;101463.78;5032265;28;20059;-77
2022/11/20 01:51:46;;;;;;;15.38;8.70;;;;;;;-6.63;100.00;101453.50;5032253;28;20041;-78
2022/11/20 01:54:18;;;;;;;14.90;8.80;;;;;;;-6.68;100.00;101450.09;5032194;28;20470;-76
2022/11/20 01:56:45;;;;;;;19.67;9.32;;;;;;;-6.67;100.00;101447.50;5031939;28;20033;-77
2022/11/20 01:59:15;;;;;;;14.85;8.80;;;;;;;-6.65;100.00;101460.41;5030574;28;20034;-77
2022/11/20 02:01:40;;;;;;;15.82;9.27;;;;;;;-6.67;100.00;101462.16;5031880;28;20142;-77
2022/11/20 02:04:08;;;;;;;18.27;8.32;;;;;;;-6.64;100.00;101464.72;5029751;28;20133;-76
2022/11/20 02:06:42;;;;;;;13.77;9.00;;;;;;;-6.66;100.00;101456.94;5031604;28;20064;-75
2022/11/20 02:09:08;;;;;;;16.50;9.13;;;;;;;-6.68;100.00;101455.28;5031530;28;20084;-76
2022/11/20 02:11:33;;;;;;;17.40;9.90;;;;;;;-6.62;100.00;101457.81;5029846;28;20041;-77
2022/11/20 02:13:59;;;;;;;15.15;9.38;;;;;;;-6.57;100.00;101461.19;5032613;28;20135;-77
2022/11/20 02:16:30;;;;;;;17.13;10.10;;;;;;;-6.55;100.00;101459.47;5031493;28;20049;-77
2022/11/20 02:18:59;;;;;;;17.08;9.18;;;;;;;-6.60;100.00;101456.94;5031844;28;20440;-77
2022/11/20 02:21:27;;;;;;;15.52;9.13;;;;;;;-6.66;100.00;101449.19;5031452;28;20033;-78
2022/11/20 02:24:22;;;;;;;15.80;10.27;;;;;;;-6.70;100.00;101447.53;5031145;28;20099;-76
2022/11/20 02:27:04;;;;;;;12.65;8.07;;;;;;;-6.72;100.00;101446.66;5026024;28;20120;-77
2022/11/20 02:30:00;;;;;;;15.85;9.13;;;;;;;-6.75;100.00;101449.28;5029860;28;20100;-76
2022/11/20 02:32:28;;;;;;;15.95;8.57;;;;;;;-6.75;100.00;101446.69;5031279;28;20083;-77
2022/11/20 02:34:54;;;;;;;16.52;8.52;;;;;;;-6.75;100.00;101441.50;5031078;28;20074;-75
2022/11/20 02:37:21;;;;;;;16.23;9.38;;;;;;;-6.72;100.00;101444.06;5030419;28;20125;-76
2022/11/20 02:39:49;;;;;;;17.77;8.68;;;;;;;-6.70;100.00;101436.28;5030381;28;20029;-75
2022/11/20 02:42:14;;;;;;;19.85;9.30;;;;;;;-6.67;100.00;101441.44;5030571;28;20045;-76
2022/11/20 02:44:40;;;;;;;16.52;9.27;;;;;;;-6.66;100.00;101435.41;5030618;28;20033;-77
2022/11/20 02:47:06;;;;;;;16.05;9.40;;;;;;;-6.66;100.00;101423.31;5030633;28;20031;-77
2022/11/20 02:49:31;;;;;;;15.25;9.52;;;;;;;-6.58;100.00;101426.69;5030193;28;20384;-76
2022/11/20 02:51:56;;;;;;;17.58;9.70;;;;;;;-6.50;100.00;101430.94;5030803;28;20037;-77
2022/11/20 02:54:22;;;;;;;17.15;8.85;;;;;;;-6.53;100.00;101418.03;5030521;28;20463;-76
2022/11/20 02:56:48;;;;;;;16.13;9.55;;;;;;;-6.51;100.00;101419.69;5030699;28;20095;-76
2022/11/20 02:59:13;;;;;;;13.30;8.82;;;;;;;-6.49;100.00;101419.69;5030746;28;20037;-76
2022/11/20 03:01:38;;;;;;;16.05;10.25;;;;;;;-6.51;100.00;101429.22;5029272;28;20469;-77
2022/11/20 03:04:04;;;;;;;15.32;9.40;;;;;;;-6.59;100.00;101422.38;5029067;28;20033;-77
2022/11/20 03:06:29;;;;;;;15.23;8.52;;;;;;;-6.61;100.00;101413.78;5030085;28;20166;-77
2022/11/20 03:08:55;;;;;;;17.20;9.68;;;;;;;-6.63;100.00;101399.13;5030480;28;20400;-76
2022/11/20 03:11:20;;;;;;;18.10;10.57;;;;;;;-6.65;100.00;101398.28;5028466;28;20109;-75
2022/11/20 03:13:46;;;;;;;17.85;10.07;;;;;;;-6.62;100.00;101396.53;5033896;28;20045;-74
2022/11/20 03:16:14;;;;;;;19.02;10.02;;;;;;;-6.62;100.00;101401.69;5033548;28;20524;-73
2022/11/20 03:18:40;;;;;;;17.02;9.73;;;;;;;-6.68;100.00;101406.09;5034084;28;20060;-73
2022/11/20 03:21:07;;;;;;;20.00;9.48;;;;;;;-6.70;100.00;101405.22;5033996;28;20040;-74
2022/11/20 03:23:33;;;;;;;14.98;9.18;;;;;;;-6.76;100.00;101390.66;5033870;28;20038;-74
2022/11/20 03:26:19;;;;;;;17.05;9.50;;;;;;;-6.83;100.00;101386.41;5034321;28;20033;-74
2022/11/20 03:28:51;;;;;;;18.45;9.48;;;;;;;-6.84;100.00;101389.84;5034251;28;20075;-74
2022/11/20 03:31:18;;;;;;;15.07;8.77;;;;;;;-6.85;100.00;101391.59;5034241;28;20052;-74
2022/11/20 03:33:44;;;;;;;15.68;9.98;;;;;;;-6.85;100.00;101385.53;5034033;28;20034;-73
2022/11/20 03:36:13;;;;;;;16.95;9.30;;;;;;;-6.87;100.00;101382.97;5049501;28;20030;-74
2022/11/20 03:38:39;;;;;;;20.13;8.68;;;;;;;-6.94;100.00;101382.19;5033680;28;20091;-73
2022/11/20 03:41:07;;;;;;;16.90;9.85;;;;;;;-6.99;100.00;101385.66;5033462;28;20025;-74
2022/11/20 03:43:33;;;;;;;18.08;9.68;;;;;;;-7.00;100.00;101378.78;5033617;28;20037;-74
2022/11/20 03:45:59;;;;;;;19.50;10.32;;;;;;;-6.96;100.00;101377.88;5033222;28;20041;-74
2022/11/20 03:48:24;;;;;;;15.95;9.45;;;;;;;-6.87;100.00;101380.38;5033690;28;20384;-73
2022/11/20 03:50:51;;;;;;;17.38;9.60;;;;;;;-6.86;100.00;101381.25;5033588;28;20037;-73
2022/11/20 03:53:17;;;;;;;16.30;9.27;;;;;;;-6.88;100.00;101373.50;5033987;28;20033;-73
2022/11/20 03:55:42;;;;;;;17.90;9.95;;;;;;;-6.91;100.00;101358.84;5033339;28;20033;-73
2022/11/20 03:58:09;;;;;;;19.23;9.80;;;;;;;-6.94;100.00;101356.31;5033300;28;20458;-73
2022/11/20 04:00:35;;;;;;;17.85;9.45;;;;;;;-6.93;100.00;101351.97;5033288;28;20045;-74
2022/11/20 04:03:01;;;;;;;19.90;10.43;;;;;;;-6.90;100.00;101341.59;5033392;28;20497;-74
2022/11/20 04:05:27;;;;;;;16.88;9.68;;;;;;;-6.81;100.00;101333.72;5033882;28;20061;-74
2022/11/20 04:07:53;;;;;;;17.73;9.48;;;;;;;-6.79;100.00;101336.28;5033400;28;20125;-73
2022/11/20 04:10:18;;;;;;;17.13;9.68;;;;;;;-6.84;100.00;101331.16;5033915;28;20033;-73
2022/11/20 04:12:43;;;;;;;15.60;9.50;;;;;;;-6.86;100.00;101327.75;5031810;28;20060;-73
2022/11/20 04:15:09;;;;;;;17.67;9.82;;;;;;;-6.81;100.00;101317.34;5032926;28;20402;-74
2022/11/20 04:17:35;;;;;;;21.10;11.00;;;;;;;-6.73;100.00;101315.56;5033061;28;20048;-73
2022/11/20 04:20:01;;;;;;;22.85;11.38;;;;;;;-6.61;100.00;101315.41;5033485;28;20025;-73
2022/11/20 04:22:26;;;;;;;22.67;11.57;;;;;;;-6.58;100.00;101317.09;5032885;28;20034;-74
2022/11/20 04:24:51;;;;;;;18.42;10.27;;;;;;;-6.65;100.00;101311.13;5032646;28;20604;-73
2022/11/20 04:27:17;;;;;;;21.63;12.20;;;;;;;-6.62;100.00;101320.59;5032789;28;20045;-74
2022/11/20 04:29:42;;;;;;;18.90;10.55;;;;;;;-6.67;100.00;101324.94;5033110;28;20053;-73
2022/11/20 04:32:07;;;;;;;20.80;11.07;;;;;;;-6.70;100.00;101330.16;5033429;28;20033;-74
2022/11/20 04:34:33;;;;;;;16.05;10.05;;;;;;;-6.72;100.00;101334.50;5033119;28;20112;-74
2022/11/20 04:36:58;;;;;;;19.33;10.25;;;;;;;-6.73;100.00;101331.06;5032814;28;20084;-74
2022/11/20 04:39:24;;;;;;;19.20;9.88;;;;;;;-6.74;100.00;101335.38;5032597;28;20087;-73
2022/11/20 04:42:28;;;;;;;25.30;11.18;;;;;;;-6.69;100.00;101339.66;5032803;28;20151;-73
2022/11/20 04:44:34;;;;;;;21.80;10.57;;;;;;;-6.70;100.00;101331.03;5033297;28;20351;-74
2022/11/20 04:46:59;;;;;;;24.20;10.70;;;;;;;-6.75;100.00;101336.28;5032910;28;20106;-74
2022/11/20 04:49:25;;;;;;;16.88;9.70;;;;;;;-6.80;100.00;101332.84;5033247;28;20036;-73
2022/11/20 04:51:53;;;;;;;18.05;9.35;;;;;;;-6.85;100.00;101328.59;5032150;28;20083;-74
2022/11/20 04:54:20;;;;;;;16.83;9.68;;;;;;;-6.84;100.00;101320.81;5032645;28;20112;-74
2022/11/20 04:56:47;;;;;;;16.27;9.77;;;;;;;-6.77;100.00;101316.44;5032554;28;20091;-73
2022/11/20 04:59:13;;;;;;;16.15;9.57;;;;;;;-6.80;100.00;101321.66;5032642;28;20034;-74
2022/11/20 05:01:38;;;;;;;18.58;9.38;;;;;;;-6.84;100.00;101322.56;5032658;28;20021;-74
2022/11/20 05:04:04;;;;;;;18.45;9.75;;;;;;;-6.81;100.00;101332.88;5032526;28;20332;-74
2022/11/20 05:06:29;;;;;;;19.23;10.40;;;;;;;-6.81;100.00;101333.72;5032626;28;20141;-74
2022/11/20 05:08:54;;;;;;;18.65;10.38;;;;;;;-6.81;100.00;101325.13;5032520;28;20383;-73
2022/11/20 05:11:21;;;;;;;18.73;10.63;;;;;;;-6.80;100.00;101330.28;5031335;28;20434;-73
2022/11/20 05:13:47;;;;;;;22.17;10.77;;;;;;;-6.82;100.00;101332.03;5032675;28;20049;-73
2022/11/20 05:16:16;;;;;;;20.77;10.50;;;;;;;-6.81;100.00;101336.31;5032218;28;20534;-72
2022/11/20 05:18:42;;;;;;;22.98;11.48;;;;;;;-6.80;100.00;101339.78;5032672;28;20052;-73
2022/11/20 05:21:09;;;;;;;18.00;10.15;;;;;;;-6.79;100.00;101341.47;5031166;28;20045;-73
2022/11/20 05:23:35;;;;;;;19.42;10.82;;;;;;;-6.78;100.00;101338.88;5032450;28;20393;-73
2022/11/20 05:26:01;;;;;;;20.45;11.63;;;;;;;-6.75;100.00;101335.41;5032490;28;20485;-73
2022/11/20 05:28:28;;;;;;;25.23;11.77;;;;;;;-6.74;100.00;101332.78;5032688;28;20120;-73
2022/11/20 05:30:53;;;;;;;21.67;11.23;;;;;;;-6.70;100.00;101335.34;5032792;28;20029;-73
2022/11/20 05:33:19;;;;;;;21.50;11.48;;;;;;;-6.71;100.00;101326.72;5031422;28;20036;-73
2022/11/20 05:35:44;;;;;;;20.50;11.25;;;;;;;-6.69;100.00;101322.38;5032913;28;20095;-73
2022/11/20 05:38:10;;;;;;;22.70;12.27;;;;;;;-6.61;100.00;101324.91;5032467;28;20413;-73
2022/11/20 05:40:35;;;;;;;21.52;11.75;;;;;;;-6.63;100.00;101317.13;5036180;28;20051;-73
2022/11/20 05:43:01;;;;;;;18.98;11.32;;;;;;;-6.61;100.00;101319.72;5035996;28;20087;-73
2022/11/20 05:45:26;;;;;;;20.88;11.63;;;;;;;-6.59;100.00;101307.59;5035886;28;20437;-73
2022/11/20 05:47:52;;;;;;;18.02;11.73;;;;;;;-6.56;100.00;101302.41;5035370;28;20038;-72
2022/11/20 05:50:17;;;;;;;23.67;12.60;;;;;;;-6.53;100.00;101310.13;5035303;28;20029;-73
2022/11/20 05:52:42;;;;;;;24.08;12.82;;;;;;;-6.52;100.00;101303.19;5036179;28;20056;-74
2022/11/20 05:55:08;;;;;;;24.48;12.40;;;;;;;-6.51;100.00;101286.81;5035549;28;20091;-73
2022/11/20 05:57:34;;;;;;;24.48;11.75;;;;;;;-6.48;100.00;101286.75;5035505;28;20038;-73
2022/11/20 05:59:59;;;;;;;29.05;12.48;;;;;;;-6.45;100.00;101287.59;5035213;28;20046;-73
2022/11/20 06:02:24;;;;;;;22.42;12.82;;;;;;;-6.39;100.00;101282.34;5036031;28;20033;-73
2022/11/20 06:04:50;;;;;;;24.83;12.55;;;;;;;-6.31;100.00;101279.63;5035354;28;20030;-73
2022/11/20 06:07:15;;;;;;;24.45;12.82;;;;;;;-6.30;100.00;101285.66;5034068;28;20037;-73
2022/11/20 06:09:41;;;;;;;24.52;12.23;;;;;;;-6.30;100.00;101288.25;5035349;28;20466;-73
2022/11/20 06:12:06;;;;;;;19.98;12.00;;;;;;;-6.30;100.00;101277.88;5035419;28;20095;-73
2022/11/20 06:14:32;;;;;;;20.38;12.20;;;;;;;-6.30;100.00;101273.59;5035611;28;20094;-73
2022/11/20 06:16:58;;;;;;;24.15;13.02;;;;;;;-6.33;100.00;101272.75;5035023;28;20033;-73
2022/11/20 06:19:23;;;;;;;24.55;11.82;;;;;;;-6.36;100.00;101271.06;5035206;28;20040;-73
2022/11/20 06:21:49;;;;;;;22.05;12.45;;;;;;;-6.36;100.00;101262.44;5033682;28;20108;-73
2022/11/20 06:24:15;;;;;;;21.58;11.70;;;;;;;-6.39;100.00;101259.03;5034985;28;20037;-73
2022/11/20 06:26:41;;;;;;;24.63;12.68;;;;;;;-6.37;100.00;101261.59;5033803;28;20390;-73
2022/11/20 06:29:06;;;;;;;24.77;12.77;;;;;;;-6.35;100.00;101258.97;5035424;28;20035;-73
2022/11/20 06:31:34;;;;;;;25.45;13.27;;;;;;;-6.33;100.00;101262.41;5035234;28;20124;-73
2022/11/20 06:34:00;;;;;;;25.55;13.75;;;;;;;-6.29;100.00;101262.31;5034784;28;20113;-73
2022/11/20 06:36:25;;;;;;;25.33;13.23;;;;;;;-6.26;100.00;101261.44;5034789;28;20509;-73
2022/11/20 06:38:51;;;;;;;26.90;13.05;;;;;;;-6.20;100.00;101263.94;5034870;28;20047;-74
2022/11/20 06:41:19;;;;;;;25.30;13.50;;;;;;;-6.11;100.00;101270.72;5034351;28;20466;-74
2022/11/20 06:43:45;;;;;;;25.55;13.13;;;;;;;-6.06;100.00;101267.19;5034328;28;20068;-73
2022/11/20 06:46:12;;;;;;;25.25;12.52;;;;;;;-6.00;100.00;101263.66;5034584;28;20053;-73
2022/11/20 06:48:38;;;;;;;27.27;12.50;;;;;;;-5.93;100.00;101262.63;5035044;28;20110;-73
2022/11/20 06:51:07;;;;;;;25.05;13.45;;;;;;;-5.82;100.00;101264.19;5034343;28;20363;-73
2022/11/20 06:53:33;;;;;;;24.75;13.57;;;;;;;-5.76;100.00;101257.19;5034462;28;20040;-73
2022/11/20 06:55:59;;;;;;;23.88;13.23;;;;;;;-5.68;100.00;101257.06;5032973;28;20029;-74
2022/11/20 06:58:27;;;;;;;26.23;13.15;;;;;;;-5.65;100.00;101246.66;5032237;28;20041;-73
2022/11/20 07:00:53;;;;;;;27.77;13.32;;;;;;;-5.58;100.00;101247.38;5034595;28;20059;-73
2022/11/20 07:03:18;;;;;;;28.25;14.77;;;;;;;-5.52;100.00;101242.97;5034739;28;20521;-73
2022/11/20 07:05:45;;;;;;;30.52;14.77;;;;;;;-5.45;100.00;101246.28;5032957;28;20038;-73
2022/11/20 07:08:11;;;;;;;25.00;14.15;;;;;;;-5.40;100.00;101246.22;5034083;28;20042;-73
2022/11/20 07:10:37;;;;;;;25.60;14.07;;;;;;;-5.36;100.00;101246.16;5034185;28;20477;-73
2022/11/20 07:13:02;;;;;;;23.85;13.73;;;;;;;-5.35;100.00;101252.19;5034017;28;20145;-73
2022/11/20 07:15:28;;;;;;;23.00;12.95;;;;;;;-5.31;100.00;101257.28;5033870;28;20470;-73
2022/11/20 07:17:53;;;;;;;27.75;14.27;;;;;;;-5.23;100.00;101258.88;5034078;28;20065;-73
2022/11/20 07:20:18;;;;;;;24.95;13.70;;;;;;;-5.18;100.00;101260.53;5033964;28;20033;-73
2022/11/20 07:22:44;;;;;;;27.08;13.70;;;;;;;-5.13;100.00;101247.47;5034121;28;20057;-73
2022/11/20 07:25:10;;;;;;;25.00;13.75;;;;;;;-5.10;100.00;101243.97;5033982;28;20414;-73
2022/11/20 07:27:36;;;;;;;30.35;15.35;;;;;;;-5.06;100.00;101245.59;5033629;28;20033;-73
2022/11/20 07:30:02;;;;;;;27.70;14.07;;;;;;;-5.03;100.00;101243.81;5034363;28;20034;-73
2022/11/20 07:32:27;;;;;;;26.80;14.68;;;;;;;-5.01;100.00;101244.63;5033848;28;20026;-74
2022/11/20 07:34:53;;;;;;;26.65;14.75;;;;;;;-4.98;100.00;101252.34;5032483;28;20033;-73
2022/11/20 07:37:18;;;;;;;26.67;15.23;;;;;;;-4.91;100.00;101249.63;5033697;28;20079;-72
2022/11/20 07:39:43;;;;;;;27.50;14.55;;;;;;;-4.84;100.00;101252.06;5032540;28;20080;-73
2022/11/20 07:42:09;;;;;;;29.83;15.45;;;;;;;-4.78;100.00;101248.50;5033678;28;20037;-73
2022/11/20 07:44:35;;;;;;;24.00;14.27;;;;;;;-4.72;100.00;101245.78;5034294;28;20425;-73
2022/11/20 07:47:00;;;;;;;30.88;15.40;;;;;;;-4.67;100.00;101256.94;5033450;28;20038;-73
2022/11/20 07:49:26;;;;;;;28.75;15.48;;;;;;;-4.58;100.00;101262.81;5033502;28;20462;-72
2022/11/20 07:51:53;;;;;;;29.90;15.77;;;;;;;-4.53;100.00;101256.63;5033497;28;20044;-72
2022/11/20 07:54:22;;;;;;;35.13;15.45;;;;;;;-4.45;100.00;101267.75;5033266;28;20065;-73
2022/11/20 07:56:48;;;;;;;26.58;15.07;;;;;;;-4.39;100.00;101260.69;5033822;28;20105;-72
2022/11/20 07:59:14;;;;;;;32.47;16.25;;;;;;;-4.31;100.00;101261.38;5033316;28;20034;-73
2022/11/20 08:01:40;;;;;;;30.98;15.75;;;;;;;-4.21;100.00;101251.63;5032798;28;20527;-73
2022/11/20 08:04:05;;;;;;;34.55;16.25;;;;;;;-4.11;100.00;101251.38;5033195;28;20026;-73
2022/11/20 08:06:30;;;;;;;32.75;16.67;;;;;;;-4.02;100.00;101250.31;5033905;28;20037;-72
2022/11/20 08:08:56;;;;;;;30.98;16.45;;;;;;;-3.92;100.00;101243.16;5032952;28;20095;-73
2022/11/20 08:14:11;;;;;;;32.35;16.73;;;;;;;-3.74;100.00;101241.88;5032699;28;20061;-73
2022/11/20 08:16:36;;;;;;;34.00;17.65;;;;;;;-3.67;100.00;101240.81;5032916;28;20029;-72
2022/11/20 08:19:02;;;;;;;31.98;17.17;;;;;;;-3.61;100.00;101243.28;5033148;28;20022;-72
2022/11/20 08:21:27;;;;;;;30.27;16.40;;;;;;;-3.53;100.00;101239.63;5033357;28;20061;-72
2022/11/20 08:23:53;;;;;;;27.92;16.55;;;;;;;-3.47;100.00;101235.09;5033563;28;20382;-72
2022/11/20 08:26:18;;;;;;;33.40;17.40;;;;;;;-3.41;100.00;101239.31;5033414;28;20397;-72
2022/11/20 08:28:43;;;;;;;31.52;16.80;;;;;;;-3.32;100.00;101246.03;5032641;28;20119;-72
2022/11/20 08:31:09;;;;;;;32.97;17.77;;;;;;;-3.27;100.00;101247.63;5032759;28;20446;-72
2022/11/20 08:33:35;;;;;;;29.25;16.52;;;;;;;-3.21;100.00;101244.84;5032859;28;20047;-73
2022/11/20 08:36:01;;;;;;;35.80;17.80;;;;;;;-3.13;100.00;101230.78;5032963;28;20033;-73
2022/11/20 08:38:26;;;;;;;30.70;17.05;;;;;;;-3.05;100.00;101234.00;5032731;28;20117;-73
2022/11/20 08:41:23;;;;;;;32.45;17.00;;;;;;;-2.96;100.00;101241.56;5031619;28;20054;-73
2022/11/20 08:43:44;;;;;;;28.98;16.42;;;;;;;-2.87;100.00;101232.63;5032734;28;20042;-73
2022/11/20 08:46:09;;;;;;;28.90;16.20;;;;;;;-2.79;100.00;101233.28;5032867;28;20041;-72
2022/11/20 08:48:34;;;;;;;31.80;17.60;;;;;;;-2.71;100.00;101235.66;5032563;28;20033;-73
2022/11/20 08:51:00;;;;;;;28.13;17.27;;;;;;;-2.64;100.00;101238.94;5032664;28;20429;-73
2022/11/20 08:53:26;;;;;;;27.10;16.77;;;;;;;-2.57;100.00;101232.66;5032682;28;20429;-72
2022/11/20 08:55:51;;;;;;;27.80;17.55;;;;;;;-2.53;100.00;101242.09;5032958;28;20096;-73
2022/11/20 08:58:17;;;;;;;28.65;17.27;;;;;;;-2.48;100.00;101240.19;5032705;28;20021;-72
2022/11/20 09:00:43;;;;;;;31.50;16.10;;;;;;;-2.41;100.00;101233.06;5032065;28;20144;-72
2022/11/20 09:03:08;;;;;;;28.48;17.42;;;;;;;-2.36;100.00;101232.03;5032881;28;20061;-73
2022/11/20 09:05:34;;;;;;;32.95;17.45;;;;;;;-2.32;100.00;101231.00;5032789;28;20469;-72
2022/11/20 09:08:00;;;;;;;28.88;16.48;;;;;;;-2.29;100.00;101216.19;5033092;28;20108;-73
2022/11/20 09:10:26;;;;;;;29.38;16.23;;;;;;;-2.26;100.00;101222.16;5032519;28;20458;-73
2022/11/20 09:12:52;;;;;;;27.75;17.05;;;;;;;-2.21;100.00;101214.19;5032436;28;20133;-72
2022/11/20 09:15:18;;;;;;;27.25;16.55;;;;;;;-2.16;100.00;101212.28;5035730;28;20485;-72
2022/11/20 09:17:57;;;;;;;31.13;18.35;;;;;;;-2.10;100.00;101200.81;5035861;28;20496;-73
2022/11/20 09:20:23;;;;;;;28.52;16.65;;;;;;;-2.02;100.00;101204.03;5036551;28;20481;-72
2022/11/20 09:22:49;;;;;;;27.55;16.48;;;;;;;-1.93;100.00;101193.28;5036342;28;20066;-75
2022/11/20 09:25:14;;;;;;;28.80;16.13;;;;;;;-1.82;100.00;101195.53;5036204;28;20485;-73
2022/11/20 09:27:43;;;;;;;28.92;17.50;;;;;;;-1.76;100.00;101190.13;5036135;28;20442;-73
2022/11/20 09:30:09;;;;;;;26.33;15.88;;;;;;;-1.74;100.00;101183.09;5035746;28;20038;-72
2022/11/20 09:32:35;;;;;;;31.25;16.75;;;;;;;-1.69;100.00;101172.50;5035674;28;20033;-73
2022/11/20 09:35:01;;;;;;;30.17;17.67;;;;;;;-1.66;100.00;101175.00;5035697;28;20034;-73
2022/11/20 09:37:26;;;;;;;29.38;16.58;;;;;;;-1.60;100.00;101175.66;5034298;28;20029;-72
2022/11/20 09:39:51;;;;;;;29.90;16.58;;;;;;;-1.52;100.00;101178.00;5035691;28;20053;-73
2022/11/20 09:42:41;;;;;;;28.35;16.17;;;;;;;-1.48;100.00;101161.34;5035621;28;20041;-73
2022/11/20 09:45:10;;;;;;;32.63;17.75;;;;;;;-1.41;100.00;101154.13;5034832;28;20543;-73
2022/11/20 09:47:54;;;;;;;25.88;16.02;;;;;;;-1.36;100.00;101154.81;5034349;28;20442;-73
2022/11/20 09:50:30;;;;;;;33.40;17.85;;;;;;;-1.26;100.00;101150.13;5035774;28;20025;-73
2022/11/20 09:53:21;;;;;;;29.38;17.40;;;;;;;-1.17;100.00;101149.78;5035393;28;20568;-72
2022/11/20 09:55:47;;;;;;;31.27;17.58;;;;;;;-1.08;100.00;101136.38;5035607;28;20072;-72
2022/11/20 09:58:24;;;;;;;28.95;17.70;;;;;;;-1.01;100.00;101137.00;5035300;28;20049;-72
2022/11/20 10:00:51;;;;;;;30.40;17.70;;;;;;;-0.93;100.00;101134.09;5035565;28;20030;-71
2022/11/20 10:03:26;;;;;;;29.40;17.48;;;;;;;-0.91;100.00;101127.91;5035574;28;20026;-72
2022/11/20 10:05:54;;;;;;;28.08;16.92;;;;;;;-0.86;100.00;101121.69;5035503;28;20029;-71
2022/11/20 10:08:29;;;;;;;30.70;17.88;;;;;;;-0.87;100.00;101107.75;5035153;28;20474;-72
2022/11/20 10:11:04;;;;;;;36.88;18.98;;;;;;;-0.82;100.00;101103.19;5035152;28;20025;-71
2022/11/20 10:14:00;;;;;;;29.65;17.80;;;;;;;-0.79;100.00;101094.38;5035032;28;20108;-70
2022/11/20 10:16:44;;;;;;;32.20;17.95;;;;;;;-0.75;100.00;101089.00;5035640;28;20021;-70
2022/11/20 10:19:40;;;;;;;29.83;17.63;;;;;;;-0.66;100.00;101084.31;5035239;28;20032;-72
2022/11/20 10:22:36;;;;;;;31.45;18.85;;;;;;;-0.60;100.00;101086.66;5034847;28;20031;-73
2022/11/20 10:25:08;;;;;;;36.85;18.80;;;;;;;-0.55;100.00;101067.28;5034363;28;20084;-72
2022/11/20 10:27:49;;;;;;;31.05;18.75;;;;;;;-0.45;100.00;101066.91;5034909;28;20087;-73
2022/11/20 10:30:17;;;;;;;33.38;19.42;;;;;;;-0.37;100.00;101054.38;5035020;28;20033;-75
2022/11/20 10:32:53;;;;;;;33.47;19.52;;;;;;;-0.27;100.00;101052.22;5034631;28;20100;-72
2022/11/20 10:35:28;;;;;;;34.08;19.73;;;;;;;-0.16;100.00;101046.53;5034590;28;20022;-73
2022/11/20 10:37:59;;;;;;;30.70;18.58;;;;;;;-0.11;100.00;101050.66;5034778;28;20056;-74
2022/11/20 10:40:28;;;;;;;;;;;;;;;-0.11;100.00;101045.41;5034862;28;20419;-74
2022/11/20 10:42:59;;;;;;;29.27;18.23;;;;;;;-0.09;100.00;101048.84;5034368;28;19921;-73
2022/11/20 10:45:24;;;;;;;30.80;18.45;;;;;;;-0.10;100.00;101046.28;5034819;28;20049;-74
2022/11/20 10:47:53;;;;;;;32.78;18.92;;;;;;;-0.08;100.00;101036.59;5034362;28;20463;-73
2022/11/20 10:50:21;;;;;;;30.23;18.33;;;;;;;-0.09;100.00;101043.59;5034431;28;20036;-73
2022/11/20 10:53:00;;;;;;;30.33;17.67;;;;;;;-0.08;100.00;101026.97;5034112;28;20029;-72
2022/11/20 10:55:38;;;;;;;38.03;18.63;;;;;;;-0.08;100.00;101026.97;5034106;28;20033;-72
2022/11/20 10:58:14;;;;;;;28.30;17.80;;;;;;;-0.01;100.00;101023.19;5034346;28;20029;-73
2022/11/20 11:00:40;;;;;;;30.67;17.98;;;;;;;0.09;100.00;101018.41;5034010;28;20085;-73
2022/11/20 11:03:27;;;;;;;31.30;17.83;;;;;;;0.19;100.00;101002.28;5034173;28;20438;-73
2022/11/20 11:06:27;;;;;;;30.05;17.90;;;;;;;0.30;100.00;101007.88;5033970;28;20454;-71
2022/11/20 11:08:56;;;;;;;31.13;18.23;;;;;;;0.37;100.00;101000.63;5021751;28;20466;-72
2022/11/20 11:11:25;;;;;;;31.23;17.20;;;;;;;0.41;100.00;100987.31;5034755;28;20354;-72
2022/11/20 11:13:51;;;;;;;29.63;17.15;;;;;;;0.44;100.00;100983.72;5033834;28;20136;-71